createdAt,value
2019-02-20T00:02:21.993Z,17.60
2019-02-20T00:04:49.197Z,20.43
2019-02-20T00:07:16.409Z,18.30
2019-02-20T00:09:43.685Z,16.67
2019-02-20T00:12:11.100Z,17.33
2019-02-20T00:14:38.308Z,20.33
2019-02-20T00:17:05.579Z,17.27
2019-02-20T00:19:32.813Z,15.37
2019-02-20T00:22:00.037Z,21.87
2019-02-20T00:24:27.290Z,16.23
2019-02-20T00:26:54.487Z,17.97
2019-02-20T00:29:21.707Z,19.40
2019-02-20T00:31:48.978Z,18.30
2019-02-20T00:34:16.184Z,17.33
2019-02-20T00:36:43.448Z,16.40
2019-02-20T00:39:10.858Z,16.93
2019-02-20T00:41:38.111Z,16.97
2019-02-20T00:44:14.344Z,24.73
2019-02-20T00:46:49.126Z,23.87
2019-02-20T00:49:27.495Z,21.10
2019-02-20T00:52:06.674Z,19.10
2019-02-20T00:54:33.981Z,23.43
2019-02-20T00:57:01.232Z,24.63
2019-02-20T00:59:28.445Z,19.37
2019-02-20T01:01:55.818Z,20.97
2019-02-20T01:04:23.052Z,24.17
2019-02-20T01:06:50.307Z,20.87
2019-02-20T01:09:17.614Z,18.03
2019-02-20T01:11:44.821Z,21.73
2019-02-20T01:14:12.065Z,18.23
2019-02-20T01:16:39.288Z,17.07
2019-02-20T01:19:06.507Z,22.17
2019-02-20T01:21:33.790Z,25.53
2019-02-20T01:24:01.077Z,16.57
2019-02-20T01:26:28.358Z,20.07
2019-02-20T01:28:55.616Z,20.60
2019-02-20T01:31:25.023Z,18.43
2019-02-20T01:33:52.288Z,20.80
2019-02-20T01:36:19.501Z,17.23
2019-02-20T01:38:46.729Z,22.37
2019-02-20T01:41:14.029Z,18.33
2019-02-20T01:43:41.317Z,21.00
2019-02-20T01:46:08.542Z,20.07
2019-02-20T01:48:35.792Z,21.93
2019-02-20T01:51:03.024Z,24.77
2019-02-20T01:53:30.250Z,22.53
2019-02-20T01:55:57.492Z,23.50
2019-02-20T01:58:24.699Z,19.13
2019-02-20T02:00:51.910Z,26.37
2019-02-20T02:03:19.182Z,27.87
2019-02-20T02:05:47.285Z,19.30
2019-02-20T02:08:14.674Z,20.40
2019-02-20T02:10:44.403Z,19.60
2019-02-20T02:13:13.704Z,13.80
2019-02-20T02:15:40.935Z,22.37
2019-02-20T02:18:09.504Z,25.70
2019-02-20T02:20:36.777Z,24.17
2019-02-20T02:23:04.035Z,16.07
2019-02-20T02:25:31.352Z,17.30
2019-02-20T02:27:58.602Z,20.00
2019-02-20T02:30:25.964Z,19.43
2019-02-20T02:32:53.175Z,23.17
2019-02-20T02:35:20.382Z,19.90
2019-02-20T02:37:47.626Z,20.23
2019-02-20T02:40:14.845Z,20.23
2019-02-20T02:42:42.160Z,20.67
2019-02-20T02:45:09.629Z,21.13
2019-02-20T02:47:36.903Z,19.10
2019-02-20T02:50:04.165Z,22.60
2019-02-20T02:52:31.365Z,16.17
2019-02-20T02:54:58.617Z,19.27
2019-02-20T02:57:25.840Z,18.57
2019-02-20T02:59:53.058Z,23.67
2019-02-20T03:02:20.317Z,22.80
2019-02-20T03:04:47.556Z,27.10
2019-02-20T03:07:14.776Z,23.57
2019-02-20T03:09:42.047Z,18.90
2019-02-20T03:12:09.293Z,25.40
2019-02-20T03:14:36.504Z,22.17
2019-02-20T03:17:03.807Z,23.23
2019-02-20T03:19:31.079Z,16.57
2019-02-20T03:21:58.291Z,21.27
2019-02-20T03:24:25.592Z,19.23
2019-02-20T03:26:52.800Z,20.57
2019-02-20T03:29:20.107Z,23.57
2019-02-20T03:31:47.337Z,17.77
2019-02-20T03:34:14.564Z,18.87
2019-02-20T03:36:41.813Z,19.00
2019-02-20T03:39:09.027Z,17.23
2019-02-20T03:41:36.276Z,25.63
2019-02-20T03:44:03.529Z,18.70
2019-02-20T03:46:30.763Z,21.13
2019-02-20T03:48:57.968Z,26.27
2019-02-20T03:51:25.242Z,20.87
2019-02-20T03:53:52.554Z,20.67
2019-02-20T03:56:19.878Z,13.97
2019-02-20T03:58:47.105Z,18.07
2019-02-20T04:01:14.316Z,20.07
2019-02-20T04:03:41.563Z,21.50
2019-02-20T04:06:08.827Z,16.60
2019-02-20T04:08:36.074Z,16.87
2019-02-20T04:11:03.251Z,17.50
2019-02-20T04:13:32.841Z,17.90
2019-02-20T04:16:00.049Z,16.53
2019-02-20T04:18:27.251Z,21.13
2019-02-20T04:20:54.508Z,19.37
2019-02-20T04:23:21.743Z,20.20
2019-02-20T04:25:49.146Z,22.27
2019-02-20T04:28:16.371Z,21.27
2019-02-20T04:30:43.587Z,19.10
2019-02-20T04:33:10.841Z,17.20
2019-02-20T04:35:38.048Z,21.93
2019-02-20T04:38:05.302Z,23.30
2019-02-20T04:40:32.545Z,22.03
2019-02-20T04:42:59.792Z,19.83
2019-02-20T04:45:27.076Z,23.03
2019-02-20T04:47:54.309Z,19.10
2019-02-20T04:50:21.530Z,25.77
2019-02-20T04:52:48.773Z,22.47
2019-02-20T04:55:16.019Z,22.17
2019-02-20T04:57:43.247Z,24.43
2019-02-20T05:00:11.566Z,20.20
2019-02-20T05:02:38.789Z,21.73
2019-02-20T05:05:06.239Z,23.53
2019-02-20T05:07:33.473Z,22.50
2019-02-20T05:10:00.748Z,24.03
2019-02-20T05:12:27.975Z,22.53
2019-02-20T05:14:55.223Z,22.33
2019-02-20T05:17:22.581Z,25.90
2019-02-20T05:19:49.801Z,28.83
2019-02-20T05:22:17.077Z,17.47
2019-02-20T05:24:44.283Z,26.53
2019-02-20T05:27:11.526Z,22.53
2019-02-20T05:29:38.770Z,23.70
2019-02-20T05:32:06.062Z,21.00
2019-02-20T05:34:33.280Z,23.57
2019-02-20T05:37:00.530Z,17.83
2019-02-20T05:39:27.788Z,28.00
2019-02-20T05:41:55.034Z,27.57
2019-02-20T05:44:22.333Z,28.33
2019-02-20T05:46:49.611Z,32.17
2019-02-20T05:49:16.839Z,25.20
2019-02-20T05:51:44.053Z,26.83
2019-02-20T05:54:11.320Z,25.57
2019-02-20T05:56:38.530Z,29.17
2019-02-20T05:59:05.742Z,31.70
2019-02-20T06:01:33.002Z,33.87
2019-02-20T06:04:00.291Z,22.37
2019-02-20T06:06:27.571Z,26.60
2019-02-20T06:08:54.809Z,26.27
2019-02-20T06:11:22.088Z,23.33
2019-02-20T06:13:49.323Z,29.13
2019-02-20T06:16:16.577Z,29.57
2019-02-20T06:18:43.849Z,23.97
2019-02-20T06:21:11.118Z,17.93
2019-02-20T06:23:38.364Z,17.70
2019-02-20T06:26:05.624Z,33.53
2019-02-20T06:28:32.893Z,24.80
2019-02-20T06:31:00.123Z,23.30
2019-02-20T06:33:27.421Z,19.17
2019-02-20T06:35:54.729Z,24.03
2019-02-20T06:38:21.934Z,23.27
2019-02-20T06:40:49.170Z,27.07
2019-02-20T06:43:16.465Z,22.03
2019-02-20T06:45:43.755Z,24.67
2019-02-20T06:48:10.986Z,27.20
2019-02-20T06:50:38.234Z,22.43
2019-02-20T06:53:05.474Z,33.90
2019-02-20T06:55:32.738Z,26.53
2019-02-20T06:58:00.953Z,23.27
2019-02-20T07:00:28.189Z,21.00
2019-02-20T07:02:55.401Z,32.80
2019-02-20T07:05:36.568Z,27.33
2019-02-20T07:09:06.744Z,25.37
2019-02-20T07:12:17.595Z,25.80
2019-02-20T07:15:07.408Z,26.93
2019-02-20T07:18:11.444Z,29.10
2019-02-20T07:21:29.138Z,22.23
2019-02-20T07:24:32.677Z,33.17
2019-02-20T07:27:40.475Z,31.47
2019-02-20T07:30:09.443Z,30.70
2019-02-20T07:32:36.722Z,30.17
2019-02-20T07:35:04.866Z,26.20
2019-02-20T07:37:32.113Z,25.90
2019-02-20T07:39:59.377Z,31.47
2019-02-20T07:42:26.632Z,35.47
2019-02-20T07:44:53.883Z,24.90
2019-02-20T07:47:21.157Z,26.97
2019-02-20T07:49:48.449Z,19.23
2019-02-20T07:52:15.669Z,23.03
2019-02-20T07:54:42.908Z,26.90
2019-02-20T07:57:10.174Z,17.63
2019-02-20T07:59:40.470Z,22.67
2019-02-20T08:02:07.701Z,24.60
2019-02-20T08:04:34.915Z,38.57
2019-02-20T08:07:02.207Z,29.40
2019-02-20T08:09:29.426Z,28.53
2019-02-20T08:11:56.638Z,28.23
2019-02-20T08:14:23.889Z,27.33
2019-02-20T08:16:52.715Z,29.10
2019-02-20T08:19:21.829Z,27.30
2019-02-20T08:21:49.340Z,26.13
2019-02-20T08:24:16.582Z,21.63
2019-02-20T08:26:43.849Z,20.70
2019-02-20T08:29:11.071Z,27.33
2019-02-20T08:31:38.311Z,30.77
2019-02-20T08:34:05.527Z,27.23
2019-02-20T08:36:32.736Z,26.80
2019-02-20T08:38:59.988Z,25.60
2019-02-20T08:41:27.211Z,30.07
2019-02-20T08:43:54.426Z,23.50
2019-02-20T08:46:21.663Z,27.30
2019-02-20T08:48:48.966Z,27.83
2019-02-20T08:51:16.205Z,32.90
2019-02-20T08:53:43.840Z,29.87
2019-02-20T08:56:11.077Z,24.90
2019-02-20T08:58:38.824Z,24.70
2019-02-20T09:01:06.453Z,27.80
2019-02-20T09:03:34.111Z,21.70
2019-02-20T09:06:02.093Z,26.20
2019-02-20T09:08:29.826Z,24.50
2019-02-20T09:10:57.592Z,30.27
2019-02-20T09:13:25.178Z,22.37
2019-02-20T09:15:52.812Z,24.83
2019-02-20T09:18:20.460Z,25.80
2019-02-20T09:20:48.080Z,26.70
2019-02-20T09:23:15.303Z,24.13
2019-02-20T09:25:42.626Z,23.63
2019-02-20T09:28:09.863Z,23.83
2019-02-20T09:30:37.110Z,23.27
2019-02-20T09:33:04.373Z,26.40
2019-02-20T09:35:31.702Z,30.77
2019-02-20T09:37:58.996Z,25.60
2019-02-20T09:40:26.247Z,18.53
2019-02-20T09:42:53.539Z,23.03
2019-02-20T09:45:20.832Z,24.07
2019-02-20T09:47:48.132Z,17.87
2019-02-20T09:50:15.408Z,24.83
2019-02-20T09:52:51.706Z,21.90
2019-02-20T09:55:11.919Z,25.87
2019-02-20T09:57:39.141Z,24.67
2019-02-20T10:00:09.533Z,24.63
2019-02-20T10:02:36.803Z,23.07
2019-02-20T10:05:04.273Z,24.60
2019-02-20T10:07:31.494Z,22.33
2019-02-20T10:09:58.754Z,23.53
2019-02-20T10:12:25.985Z,21.10
2019-02-20T10:14:53.260Z,24.00
2019-02-20T10:17:20.471Z,22.83
2019-02-20T10:19:47.777Z,22.40
2019-02-20T10:22:15.052Z,20.63
2019-02-20T10:24:42.274Z,18.47
2019-02-20T10:27:09.611Z,19.00
2019-02-20T10:29:36.942Z,22.13
2019-02-20T10:32:04.133Z,16.90
2019-02-20T10:34:31.394Z,22.20
2019-02-20T10:36:58.604Z,18.83
2019-02-20T10:39:25.928Z,15.67
2019-02-20T10:41:53.172Z,13.93
2019-02-20T10:44:20.428Z,21.87
2019-02-20T10:46:47.748Z,17.50
2019-02-20T10:49:14.974Z,18.47
2019-02-20T10:51:42.298Z,14.30
2019-02-20T10:54:09.534Z,19.17
2019-02-20T10:56:36.793Z,15.77
2019-02-20T10:59:04.469Z,19.93
2019-02-20T11:01:32.857Z,13.83
2019-02-20T11:04:00.195Z,14.90
2019-02-20T11:06:28.017Z,17.77
2019-02-20T11:08:55.291Z,17.37
2019-02-20T11:11:23.040Z,14.87
2019-02-20T11:13:50.293Z,15.47
2019-02-20T11:16:17.585Z,16.03
2019-02-20T11:18:44.816Z,14.90
2019-02-20T11:21:12.032Z,19.07
2019-02-20T11:23:39.350Z,17.17
2019-02-20T11:26:06.625Z,18.33
2019-02-20T11:28:33.921Z,14.43
2019-02-20T11:31:01.165Z,12.47
2019-02-20T11:33:28.389Z,14.43
2019-02-20T11:35:55.817Z,12.23
2019-02-20T11:38:23.081Z,13.23
2019-02-20T11:40:50.572Z,17.13
2019-02-20T11:43:17.790Z,15.80
2019-02-20T11:45:45.070Z,16.87
2019-02-20T11:48:12.328Z,17.40
2019-02-20T11:50:39.562Z,17.27
2019-02-20T11:53:06.936Z,11.50
2019-02-20T11:55:34.438Z,14.40
2019-02-20T11:58:01.683Z,19.30
2019-02-20T12:00:28.925Z,12.80
2019-02-20T12:02:56.145Z,16.77
2019-02-20T12:05:26.504Z,15.37
2019-02-20T12:07:53.757Z,15.07
2019-02-20T12:10:21.091Z,15.90
2019-02-20T12:12:48.380Z,13.80
2019-02-20T12:15:15.624Z,11.57
2019-02-20T12:17:42.843Z,15.40
2019-02-20T12:20:10.305Z,15.67
2019-02-20T12:22:37.560Z,15.80
2019-02-20T12:25:04.911Z,15.07
2019-02-20T12:27:33.135Z,12.50
2019-02-20T12:30:00.557Z,13.33
2019-02-20T12:32:27.865Z,20.73
2019-02-20T12:34:55.154Z,15.63
2019-02-20T12:37:22.436Z,14.43
2019-02-20T12:39:49.745Z,20.87
2019-02-20T12:42:17.356Z,17.80
2019-02-20T12:44:44.668Z,11.70
2019-02-20T12:47:12.149Z,15.87
2019-02-20T12:49:39.459Z,13.17
2019-02-20T12:52:06.711Z,15.00
2019-02-20T12:54:33.984Z,14.80
2019-02-20T12:57:01.298Z,16.23
2019-02-20T12:59:28.568Z,14.10
2019-02-20T13:01:55.815Z,16.23
2019-02-20T13:04:24.578Z,13.30
2019-02-20T13:06:59.177Z,14.13
2019-02-20T13:09:21.252Z,17.47
2019-02-20T13:11:48.508Z,14.50
2019-02-20T13:14:15.780Z,13.83
2019-02-20T13:16:43.115Z,12.97
2019-02-20T13:19:10.387Z,13.90
2019-02-20T13:21:37.665Z,14.87
2019-02-20T13:24:04.995Z,13.67
2019-02-20T13:26:32.251Z,11.60
2019-02-20T13:28:59.509Z,16.53
2019-02-20T13:31:26.855Z,11.73
2019-02-20T13:33:54.152Z,13.67
2019-02-20T13:36:21.413Z,13.87
2019-02-20T13:38:48.736Z,15.37
2019-02-20T13:41:16.033Z,11.13
2019-02-20T13:43:43.301Z,15.33
2019-02-20T13:46:10.623Z,13.50
2019-02-20T13:48:37.922Z,13.27
2019-02-20T13:51:05.178Z,11.77
2019-02-20T13:53:33.681Z,11.70
2019-02-20T13:56:01.162Z,14.13
2019-02-20T13:58:28.756Z,11.80
2019-02-20T14:00:56.030Z,15.47
2019-02-20T14:03:23.398Z,11.53
2019-02-20T14:05:56.592Z,14.87
2019-02-20T14:08:23.852Z,15.87
2019-02-20T14:10:51.148Z,11.67
2019-02-20T14:13:18.435Z,15.33
2019-02-20T14:15:46.100Z,13.07
2019-02-20T14:18:13.379Z,14.43
2019-02-20T14:20:40.752Z,16.90
2019-02-20T14:23:08.097Z,10.60
2019-02-20T14:25:36.428Z,14.57
2019-02-20T14:28:03.975Z,12.30
2019-02-20T14:30:31.216Z,9.17
2019-02-20T14:32:58.933Z,14.53
2019-02-20T14:35:26.190Z,11.50
2019-02-20T14:37:53.447Z,10.83
2019-02-20T14:40:20.729Z,11.73
2019-02-20T14:42:48.040Z,13.30
2019-02-20T14:45:15.511Z,15.20
2019-02-20T14:47:42.934Z,12.53
2019-02-20T14:50:10.518Z,13.63
2019-02-20T14:52:38.070Z,12.93
2019-02-20T14:55:05.851Z,10.60
2019-02-20T14:57:33.130Z,13.57
2019-02-20T15:00:00.401Z,14.63
2019-02-20T15:02:27.710Z,16.03
2019-02-20T15:04:54.951Z,14.97
2019-02-20T15:07:22.283Z,14.13
2019-02-20T15:09:49.594Z,13.30
2019-02-20T15:12:16.902Z,9.50
2019-02-20T15:14:44.210Z,9.50
2019-02-20T15:17:11.482Z,13.00
2019-02-20T15:19:38.796Z,16.00
2019-02-20T15:22:06.073Z,14.87
2019-02-20T15:24:33.335Z,14.20
2019-02-20T15:27:00.741Z,12.87
2019-02-20T15:29:28.390Z,13.60
2019-02-20T15:31:57.183Z,12.80
2019-02-20T15:34:24.485Z,11.43
2019-02-20T15:36:51.925Z,14.57
2019-02-20T15:39:19.721Z,15.03
2019-02-20T15:41:47.025Z,12.40
2019-02-20T15:44:14.319Z,13.63
2019-02-20T15:46:41.718Z,12.30
2019-02-20T15:49:09.034Z,11.67
2019-02-20T15:51:36.322Z,12.50
2019-02-20T15:54:03.680Z,12.70
2019-02-20T15:56:30.999Z,12.60
2019-02-20T15:59:03.187Z,12.97
2019-02-20T16:01:33.758Z,15.00
2019-02-20T16:04:06.633Z,19.67
2019-02-20T16:06:39.020Z,10.70
2019-02-20T16:09:07.883Z,14.43
2019-02-20T16:11:36.916Z,15.33
2019-02-20T16:14:07.067Z,12.43
2019-02-20T16:16:36.002Z,12.17
2019-02-20T16:19:07.728Z,14.40
2019-02-20T16:21:36.235Z,13.47
2019-02-20T16:24:03.613Z,13.37
2019-02-20T16:26:30.972Z,13.73
2019-02-20T16:28:58.367Z,12.33
2019-02-20T16:31:26.734Z,21.27
2019-02-20T16:33:54.664Z,15.67
2019-02-20T16:36:22.833Z,16.97
2019-02-20T16:38:50.465Z,12.80
2019-02-20T16:41:17.761Z,13.43
2019-02-20T16:43:45.049Z,14.27
2019-02-20T16:46:12.420Z,14.23
2019-02-20T16:48:39.717Z,16.77
2019-02-20T16:51:07.001Z,17.23
2019-02-20T16:53:34.312Z,14.77
2019-02-20T16:56:01.567Z,14.20
2019-02-20T16:58:28.836Z,13.03
2019-02-20T17:00:56.160Z,17.63
2019-02-20T17:03:26.347Z,14.23
2019-02-20T17:05:53.610Z,15.43
2019-02-20T17:08:20.922Z,14.80
2019-02-20T17:10:48.230Z,11.23
2019-02-20T17:13:15.866Z,15.80
2019-02-20T17:15:43.106Z,12.83
2019-02-20T17:18:10.385Z,13.37
2019-02-20T17:20:37.898Z,13.17
2019-02-20T17:23:05.324Z,13.07
2019-02-20T17:25:32.716Z,15.63
2019-02-20T17:28:05.794Z,12.63
2019-02-20T17:30:29.181Z,9.93
2019-02-20T17:32:56.583Z,13.13
2019-02-20T17:35:24.098Z,12.40
2019-02-20T17:37:51.841Z,9.87
2019-02-20T17:40:19.316Z,11.03
2019-02-20T17:42:46.577Z,11.20
2019-02-20T17:45:13.974Z,10.10
2019-02-20T17:47:41.861Z,13.50
2019-02-20T17:50:11.362Z,10.27
2019-02-20T17:52:38.648Z,13.27
2019-02-20T17:55:06.469Z,10.07
2019-02-20T17:57:33.837Z,13.27
2019-02-20T18:00:01.105Z,12.13
2019-02-20T18:02:28.369Z,9.73
2019-02-20T18:04:55.680Z,10.70
2019-02-20T18:07:25.511Z,12.43
2019-02-20T18:09:52.762Z,14.17
2019-02-20T18:12:20.270Z,11.17
2019-02-20T18:14:47.544Z,9.07
2019-02-20T18:17:14.908Z,12.70
2019-02-20T18:19:42.229Z,13.90
2019-02-20T18:22:09.485Z,12.90
2019-02-20T18:24:36.735Z,15.37
2019-02-20T18:27:04.046Z,9.73
2019-02-20T18:29:31.432Z,13.27
2019-02-20T18:31:58.676Z,11.77
2019-02-20T18:34:25.983Z,10.17
2019-02-20T18:36:53.261Z,10.53
2019-02-20T18:39:20.548Z,12.37
2019-02-20T18:41:47.850Z,10.60
2019-02-20T18:44:15.141Z,11.17
2019-02-20T18:46:42.385Z,12.47
2019-02-20T18:49:09.678Z,10.10
2019-02-20T18:51:37.047Z,9.90
2019-02-20T18:54:04.306Z,9.17
2019-02-20T18:56:31.547Z,8.83
2019-02-20T18:58:58.949Z,6.83
2019-02-20T19:01:26.201Z,12.70
2019-02-20T19:03:53.449Z,7.77
2019-02-20T19:06:20.742Z,10.63
2019-02-20T19:09:12.830Z,10.67
2019-02-20T19:12:25.377Z,8.23
2019-02-20T19:15:40.745Z,10.87
2019-02-20T19:19:02.415Z,11.40
2019-02-20T19:22:10.050Z,11.37
2019-02-20T19:25:24.505Z,8.63
2019-02-20T19:28:19.439Z,8.07
2019-02-20T19:31:27.133Z,8.80
2019-02-20T19:34:22.168Z,8.47
2019-02-20T19:37:33.557Z,10.13
2019-02-20T19:40:25.771Z,9.90
2019-02-20T19:43:27.371Z,7.83
2019-02-20T19:46:16.603Z,8.63
2019-02-20T19:49:27.588Z,13.07
2019-02-20T19:52:32.588Z,9.27
2019-02-20T19:55:40.062Z,6.30
2019-02-20T19:58:30.412Z,7.30
2019-02-20T20:01:25.811Z,6.00
2019-02-20T20:04:34.003Z,8.77
2019-02-20T20:07:13.696Z,7.33
2019-02-20T20:10:10.693Z,7.07
2019-02-20T20:13:11.631Z,8.47
2019-02-20T20:16:13.880Z,8.27
2019-02-20T20:19:04.759Z,9.03
2019-02-20T20:22:03.238Z,6.03
2019-02-20T20:25:12.299Z,6.37
2019-02-20T20:28:05.684Z,8.00
2019-02-20T20:31:20.662Z,6.70
2019-02-20T20:34:53.920Z,9.23
2019-02-20T20:37:49.482Z,8.00
2019-02-20T20:41:01.954Z,8.23
2019-02-20T20:44:04.225Z,8.00
2019-02-20T20:47:09.946Z,8.73
2019-02-20T20:50:03.030Z,9.10
2019-02-20T20:53:27.084Z,5.87
2019-02-20T20:56:23.420Z,5.90
2019-02-20T20:59:28.597Z,11.77
2019-02-20T21:02:26.651Z,7.43
2019-02-20T21:05:30.668Z,6.87
2019-02-20T21:08:19.395Z,8.90
2019-02-20T21:11:32.271Z,6.37
2019-02-20T21:14:46.645Z,6.23
2019-02-20T21:17:43.239Z,6.87
2019-02-20T21:20:52.437Z,6.00
2019-02-20T21:23:55.884Z,9.30
2019-02-20T21:27:07.756Z,4.73
2019-02-20T21:29:49.570Z,8.07
2019-02-20T21:32:45.046Z,8.10
2019-02-20T21:35:55.353Z,7.17
2019-02-20T21:39:19.440Z,8.80
2019-02-20T21:42:15.316Z,10.33
2019-02-20T21:45:42.793Z,10.37
2019-02-20T21:48:45.301Z,10.43
2019-02-20T21:52:01.609Z,8.17
2019-02-20T21:54:36.240Z,5.87
2019-02-20T21:57:18.470Z,7.27
2019-02-20T22:00:27.859Z,11.67
2019-02-20T22:03:07.840Z,10.50
2019-02-20T22:06:18.296Z,9.67
2019-02-20T22:08:57.154Z,6.13
2019-02-20T22:11:48.904Z,11.33
2019-02-20T22:14:43.134Z,8.57
2019-02-20T22:17:49.468Z,10.40
2019-02-20T22:21:23.031Z,14.83
2019-02-20T22:24:05.296Z,8.63
2019-02-20T22:27:06.977Z,10.30
2019-02-20T22:30:17.358Z,10.67
2019-02-20T22:33:17.875Z,8.53
2019-02-20T22:36:16.910Z,8.83
2019-02-20T22:39:09.630Z,10.60
2019-02-20T22:42:21.175Z,12.43
2019-02-20T22:45:35.484Z,11.50
2019-02-20T22:48:29.166Z,9.50
2019-02-20T22:51:41.198Z,9.30
2019-02-20T22:54:38.442Z,11.03
2019-02-20T22:57:49.527Z,9.60
2019-02-20T23:00:53.364Z,11.57
2019-02-20T23:03:51.619Z,12.30
2019-02-20T23:06:43.997Z,13.53
2019-02-20T23:09:41.284Z,10.90
2019-02-20T23:12:52.079Z,12.57
2019-02-20T23:15:19.360Z,10.70
2019-02-20T23:17:46.632Z,12.47
2019-02-20T23:20:13.896Z,12.60
2019-02-20T23:22:41.194Z,13.03
2019-02-20T23:25:08.466Z,13.93
2019-02-20T23:27:35.733Z,13.30
2019-02-20T23:30:12.529Z,14.37
2019-02-20T23:32:33.180Z,15.27
2019-02-20T23:35:00.454Z,13.40
2019-02-20T23:37:27.765Z,19.00
2019-02-20T23:39:55.037Z,16.90
2019-02-20T23:42:22.273Z,14.83
2019-02-20T23:44:49.580Z,17.53
2019-02-20T23:47:16.875Z,19.83
2019-02-20T23:49:44.128Z,20.63
2019-02-20T23:52:11.438Z,17.97
2019-02-20T23:54:38.688Z,19.17
2019-02-20T23:57:05.937Z,18.87
2019-02-20T23:59:33.262Z,21.77
